Time;durP1;ratioP1;P1;durP2;ratioP2;P2;SDS_P1;SDS_P2;PMS_P1;PMS_P2;Temp;Humidity;BMP_temperature;BMP_pressure;BME280_temperature;BME280_humidity;BME280_pressure;Samples;Min_cycle;Max_cycle;Signal;HPM_P1;HPM_P2
2023/11/04 00:01:53;;;;;;;2.33;0.90;;;;;;;;;;5068485;28;20136;-72
2023/11/04 00:04:20;;;;;;;4.10;0.80;;;;;;;;;;5099506;27;20682;-72
2023/11/04 00:06:46;;;;;;;2.38;1.15;;;;;;;;;;5098828;28;20592;-72
2023/11/04 00:09:13;;;;;;;1.92;0.90;;;;;;;;;;5085795;28;20051;-73
2023/11/04 00:11:45;;;;;;;2.83;0.82;;;;;;;;;;5094022;28;20059;-73
2023/11/04 00:14:12;;;;;;;1.65;0.85;;;;;;;;;;5094757;28;20601;-72
2023/11/04 00:16:39;;;;;;;2.10;0.70;;;;;;;;;;5099573;28;20565;-73
2023/11/04 00:19:05;;;;;;;0.80;0.80;;;;;;;;;;5102857;28;20048;-72
2023/11/04 00:21:33;;;;;;;1.38;1.02;;;;;;;;;;5097131;28;20043;-72
2023/11/04 00:24:00;;;;;;;0.90;0.85;;;;;;;;;;5081350;28;20059;-72
2023/11/04 00:26:27;;;;;;;1.40;0.80;;;;;;;;;;5077540;28;20628;-72
2023/11/04 00:28:53;;;;;;;2.22;1.08;;;;;;;;;;5084097;28;20130;-72
2023/11/04 00:31:19;;;;;;;1.65;1.55;;;;;;;;;;5084229;28;20124;-73
2023/11/04 00:33:46;;;;;;;0.90;0.80;;;;;;;;;;5087984;28;20420;-72
2023/11/04 00:36:13;;;;;;;3.30;0.85;;;;;;;;;;5099983;28;20075;-72
2023/11/04 00:38:39;;;;;;;0.95;0.77;;;;;;;;;;5080829;28;20127;-72
2023/11/04 00:41:06;;;;;;;2.72;1.20;;;;;;;;;;5097830;28;20059;-72
2023/11/04 00:43:33;;;;;;;1.58;1.02;;;;;;;;;;5100583;28;20040;-73
2023/11/04 00:46:00;;;;;;;1.05;0.90;;;;;;;;;;5091102;28;20040;-72
2023/11/04 00:48:26;;;;;;;1.30;0.70;;;;;;;;;;5087625;28;20123;-72
2023/11/04 00:50:53;;;;;;;1.25;1.15;;;;;;;;;;5094219;28;20040;-72
2023/11/04 00:53:19;;;;;;;2.20;0.82;;;;;;;;;;5102424;28;20126;-72
2023/11/04 00:55:46;;;;;;;1.70;1.00;;;;;;;;;;5079472;28;20077;-72
2023/11/04 00:58:13;;;;;;;1.55;0.90;;;;;;;;;;5074279;28;20138;-73
2023/11/04 01:00:39;;;;;;;1.35;1.00;;;;;;;;;;5103105;27;20062;-72
2023/11/04 01:03:06;;;;;;;2.00;1.13;;;;;;;;;;5095560;28;20852;-72
2023/11/04 01:05:33;;;;;;;2.80;1.60;;;;;;;;;;5084619;28;20626;-72
2023/11/04 01:08:00;;;;;;;4.57;0.90;;;;;;;;;;5097433;28;20462;-72
2023/11/04 01:10:27;;;;;;;2.38;1.08;;;;;;;;;;5075133;28;20040;-72
2023/11/04 01:12:53;;;;;;;2.45;0.60;;;;;;;;;;5096250;28;20563;-72
2023/11/04 01:15:20;;;;;;;3.97;1.10;;;;;;;;;;5090466;28;20051;-72
2023/11/04 01:17:46;;;;;;;2.75;1.00;;;;;;;;;;5096364;28;20044;-72
2023/11/04 01:20:13;;;;;;;3.10;1.15;;;;;;;;;;5094761;28;20101;-71
2023/11/04 01:22:40;;;;;;;2.80;1.00;;;;;;;;;;5096097;28;20477;-72
2023/11/04 01:25:07;;;;;;;1.75;1.20;;;;;;;;;;5097913;28;20063;-72
2023/11/04 01:27:33;;;;;;;2.90;0.93;;;;;;;;;;5094263;28;20518;-73
2023/11/04 01:30:00;;;;;;;3.80;1.40;;;;;;;;;;5099122;28;20629;-72
2023/11/04 01:32:27;;;;;;;3.22;1.10;;;;;;;;;;5094325;28;20059;-72
2023/11/04 01:34:54;;;;;;;2.60;0.90;;;;;;;;;;5088902;28;20572;-72
2023/11/04 01:37:25;;;;;;;2.20;1.23;;;;;;;;;;5093427;28;20056;-72
2023/11/04 01:39:52;;;;;;;4.97;1.35;;;;;;;;;;5082509;28;20816;-72
2023/11/04 01:42:18;;;;;;;4.50;1.02;;;;;;;;;;5101543;28;20488;-72
2023/11/04 01:44:45;;;;;;;1.77;1.10;;;;;;;;;;5100354;28;20075;-72
2023/11/04 01:47:12;;;;;;;3.40;0.95;;;;;;;;;;5087995;28;20074;-72
2023/11/04 01:49:38;;;;;;;4.43;1.10;;;;;;;;;;5099148;28;20043;-72
2023/11/04 01:52:05;;;;;;;3.95;1.20;;;;;;;;;;5100955;28;20112;-72
2023/11/04 01:54:33;;;;;;;0.90;0.82;;;;;;;;;;5091077;28;20595;-72
2023/11/04 01:57:00;;;;;;;1.65;0.98;;;;;;;;;;5094384;28;20044;-72
2023/11/04 01:59:27;;;;;;;2.55;1.10;;;;;;;;;;5099613;28;20144;-72
2023/11/04 02:01:53;;;;;;;6.50;1.13;;;;;;;;;;5096092;28;20040;-72
2023/11/04 02:04:20;;;;;;;2.30;1.10;;;;;;;;;;5098172;28;20140;-73
2023/11/04 02:06:46;;;;;;;2.30;1.23;;;;;;;;;;5098396;28;20089;-72
2023/11/04 02:09:13;;;;;;;2.45;1.05;;;;;;;;;;5079149;28;20059;-72
2023/11/04 02:11:39;;;;;;;3.60;1.60;;;;;;;;;;5089802;28;20085;-72
2023/11/04 02:14:08;;;;;;;2.75;0.95;;;;;;;;;;5074555;28;20150;-73
2023/11/04 02:16:35;;;;;;;2.70;1.17;;;;;;;;;;5076387;28;20051;-72
2023/11/04 02:19:02;;;;;;;2.13;1.27;;;;;;;;;;5073718;28;20087;-72
2023/11/04 02:21:28;;;;;;;2.13;1.02;;;;;;;;;;5098739;28;20047;-73
2023/11/04 02:23:55;;;;;;;2.30;1.20;;;;;;;;;;5100246;28;20059;-72
2023/11/04 02:26:21;;;;;;;2.72;1.08;;;;;;;;;;5092589;28;20039;-73
2023/11/04 02:28:48;;;;;;;2.53;1.10;;;;;;;;;;5073118;28;20130;-72
2023/11/04 02:31:14;;;;;;;3.78;1.10;;;;;;;;;;5073300;28;20075;-73
2023/11/04 02:33:41;;;;;;;3.08;1.20;;;;;;;;;;5079230;28;20519;-72
2023/11/04 02:36:08;;;;;;;7.38;1.50;;;;;;;;;;5091699;28;20138;-72
2023/11/04 02:38:34;;;;;;;5.03;1.30;;;;;;;;;;5068034;28;20066;-73
2023/11/04 02:41:01;;;;;;;4.20;1.75;;;;;;;;;;5082294;28;20082;-72
2023/11/04 02:43:27;;;;;;;1.35;1.25;;;;;;;;;;5097544;28;20519;-73
2023/11/04 02:45:53;;;;;;;2.10;1.30;;;;;;;;;;5101326;28;20043;-72
2023/11/04 02:48:20;;;;;;;3.05;1.27;;;;;;;;;;5088614;28;20052;-72
2023/11/04 02:50:46;;;;;;;4.65;1.48;;;;;;;;;;5098133;28;20264;-72
2023/11/04 02:53:13;;;;;;;4.25;1.13;;;;;;;;;;5097820;28;20071;-72
2023/11/04 02:55:39;;;;;;;2.90;1.48;;;;;;;;;;5089317;28;20127;-72
2023/11/04 02:58:06;;;;;;;2.20;1.30;;;;;;;;;;5087119;28;20059;-73
2023/11/04 03:00:33;;;;;;;2.53;1.40;;;;;;;;;;5092364;28;20058;-72
2023/11/04 03:02:59;;;;;;;1.67;1.23;;;;;;;;;;5074538;28;20528;-73
2023/11/04 03:05:26;;;;;;;4.47;1.30;;;;;;;;;;5084927;28;20047;-72
2023/11/04 03:08:03;;;;;;;3.90;1.50;;;;;;;;;;5101778;28;20112;-72
2023/11/04 03:10:30;;;;;;;8.13;1.70;;;;;;;;;;5090121;28;20116;-72
2023/11/04 03:12:56;;;;;;;1.95;1.40;;;;;;;;;;5098761;28;20047;-72
2023/11/04 03:15:23;;;;;;;3.03;1.52;;;;;;;;;;5086494;28;20520;-72
2023/11/04 03:17:49;;;;;;;3.67;1.58;;;;;;;;;;5100184;28;20155;-72
2023/11/04 03:20:16;;;;;;;2.38;1.50;;;;;;;;;;5084489;28;20880;-73
2023/11/04 03:22:42;;;;;;;4.10;1.95;;;;;;;;;;5087369;28;20052;-73
2023/11/04 03:25:09;;;;;;;5.13;1.77;;;;;;;;;;5102344;28;20054;-72
2023/11/04 03:27:36;;;;;;;4.43;1.80;;;;;;;;;;5106890;28;20739;-72
2023/11/04 03:30:04;;;;;;;3.17;1.60;;;;;;;;;;5105488;28;20055;-73
2023/11/04 03:32:30;;;;;;;5.30;2.05;;;;;;;;;;5078161;28;20058;-73
2023/11/04 03:34:57;;;;;;;4.13;1.65;;;;;;;;;;5083173;28;20102;-73
2023/11/04 03:37:24;;;;;;;2.38;1.60;;;;;;;;;;5096448;28;20051;-73
2023/11/04 03:39:52;;;;;;;5.97;1.95;;;;;;;;;;5073370;28;20084;-73
2023/11/04 03:42:19;;;;;;;4.40;1.75;;;;;;;;;;5092252;28;20040;-73
2023/11/04 03:44:45;;;;;;;7.18;1.85;;;;;;;;;;5100806;28;20054;-73
2023/11/04 03:47:12;;;;;;;2.72;1.88;;;;;;;;;;5106406;28;20052;-73
2023/11/04 03:49:38;;;;;;;2.92;1.65;;;;;;;;;;5090898;28;20113;-73
2023/11/04 03:52:06;;;;;;;6.03;2.13;;;;;;;;;;5086916;28;20113;-73
2023/11/04 03:54:35;;;;;;;5.07;2.10;;;;;;;;;;5099477;28;20480;-73
2023/11/04 03:57:01;;;;;;;;;;;;;;;;;;5074782;28;20408;-73
2023/11/04 03:59:28;;;;;;;3.42;1.50;;;;;;;;;;5091332;28;20025;-73
2023/11/04 04:01:54;;;;;;;3.40;2.05;;;;;;;;;;5084186;28;20047;-73
2023/11/04 04:04:21;;;;;;;6.88;1.88;;;;;;;;;;5101941;28;20101;-73
2023/11/04 04:06:47;;;;;;;2.92;1.90;;;;;;;;;;5090824;28;20051;-73
2023/11/04 04:09:14;;;;;;;2.58;1.58;;;;;;;;;;5097943;28;20450;-73
2023/11/04 04:11:40;;;;;;;2.47;1.65;;;;;;;;;;5104216;28;20123;-73
2023/11/04 04:14:06;;;;;;;3.00;2.00;;;;;;;;;;5102247;28;20044;-73
2023/11/04 04:16:33;;;;;;;6.70;2.40;;;;;;;;;;5096493;28;20051;-73
2023/11/04 04:18:59;;;;;;;2.65;1.77;;;;;;;;;;5070729;28;20044;-73
2023/11/04 04:21:26;;;;;;;4.15;2.13;;;;;;;;;;5094349;28;20547;-73
2023/11/04 04:23:52;;;;;;;4.47;2.17;;;;;;;;;;5083607;28;20130;-73
2023/11/04 04:26:20;;;;;;;3.92;2.20;;;;;;;;;;5104451;28;20075;-73
2023/11/04 04:28:46;;;;;;;2.95;2.00;;;;;;;;;;5085979;28;20787;-73
2023/11/04 04:31:14;;;;;;;6.13;1.90;;;;;;;;;;5102963;28;20631;-73
2023/11/04 04:33:41;;;;;;;2.75;1.70;;;;;;;;;;5086274;28;20467;-73
2023/11/04 04:36:08;;;;;;;3.97;2.20;;;;;;;;;;5089785;28;20051;-73
2023/11/04 04:38:34;;;;;;;2.25;1.80;;;;;;;;;;5085652;28;20051;-72
2023/11/04 04:41:01;;;;;;;4.78;2.30;;;;;;;;;;5094482;27;20126;-73
2023/11/04 04:43:27;;;;;;;4.00;2.22;;;;;;;;;;5085558;28;20135;-73
2023/11/04 04:45:54;;;;;;;3.75;2.17;;;;;;;;;;5096084;28;20100;-73
2023/11/04 04:48:21;;;;;;;3.30;2.03;;;;;;;;;;5097336;28;20083;-73
2023/11/04 04:50:47;;;;;;;8.55;2.53;;;;;;;;;;5100332;27;20200;-73
2023/11/04 04:53:15;;;;;;;2.65;1.73;;;;;;;;;;5097460;28;20047;-73
2023/11/04 04:55:41;;;;;;;4.63;2.00;;;;;;;;;;5080350;28;20059;-73
2023/11/04 04:58:08;;;;;;;5.10;2.58;;;;;;;;;;5094768;28;20986;-73
2023/11/04 05:00:34;;;;;;;3.03;2.03;;;;;;;;;;5098032;28;20051;-73
2023/11/04 05:03:03;;;;;;;4.82;2.30;;;;;;;;;;5104512;28;20576;-72
2023/11/04 05:05:30;;;;;;;5.85;2.22;;;;;;;;;;5075615;28;20503;-72
2023/11/04 05:07:56;;;;;;;3.90;2.38;;;;;;;;;;5077549;28;20083;-73
2023/11/04 05:10:23;;;;;;;4.32;2.38;;;;;;;;;;5082541;28;20058;-73
2023/11/04 05:12:49;;;;;;;4.05;2.00;;;;;;;;;;5097695;28;20143;-74
2023/11/04 05:15:15;;;;;;;6.25;2.15;;;;;;;;;;5098158;28;20668;-73
2023/11/04 05:17:42;;;;;;;4.72;2.10;;;;;;;;;;5096481;28;20131;-73
2023/11/04 05:20:09;;;;;;;2.90;2.25;;;;;;;;;;5073366;28;20055;-73
2023/11/04 05:22:35;;;;;;;4.13;2.50;;;;;;;;;;5077087;28;20080;-73
2023/11/04 05:25:03;;;;;;;4.47;2.10;;;;;;;;;;5086403;28;20162;-73
2023/11/04 05:27:29;;;;;;;3.40;2.33;;;;;;;;;;5084945;28;20556;-73
2023/11/04 05:29:56;;;;;;;4.03;2.30;;;;;;;;;;5082782;28;20046;-73
2023/11/04 05:32:22;;;;;;;5.30;2.63;;;;;;;;;;5103181;28;20116;-73
2023/11/04 05:34:50;;;;;;;3.92;2.13;;;;;;;;;;5103483;28;20048;-73
2023/11/04 05:37:17;;;;;;;5.72;2.75;;;;;;;;;;5092918;27;20063;-73
2023/11/04 05:39:44;;;;;;;5.50;2.58;;;;;;;;;;5100963;28;20056;-73
2023/11/04 05:42:10;;;;;;;5.97;2.53;;;;;;;;;;5100938;28;20496;-73
2023/11/04 05:44:36;;;;;;;5.13;2.50;;;;;;;;;;5103623;28;20051;-73
2023/11/04 05:47:04;;;;;;;5.13;2.17;;;;;;;;;;5100940;28;20468;-73
2023/11/04 05:49:30;;;;;;;4.30;2.20;;;;;;;;;;5096460;28;20047;-73
2023/11/04 05:51:57;;;;;;;5.50;2.25;;;;;;;;;;5093049;28;20087;-73
2023/11/04 05:54:23;;;;;;;2.97;2.20;;;;;;;;;;5097622;28;20039;-73
2023/11/04 05:56:50;;;;;;;5.10;2.50;;;;;;;;;;5096506;28;20060;-73
2023/11/04 05:59:16;;;;;;;5.40;2.40;;;;;;;;;;5072528;28;20052;-73
2023/11/04 06:01:43;;;;;;;4.28;2.28;;;;;;;;;;5088638;28;20067;-73
2023/11/04 06:04:10;;;;;;;7.15;2.30;;;;;;;;;;5095641;28;20691;-73
2023/11/04 06:06:36;;;;;;;5.03;2.25;;;;;;;;;;5087304;28;20052;-73
2023/11/04 06:09:03;;;;;;;5.00;2.08;;;;;;;;;;5067123;28;20048;-73
2023/11/04 06:11:30;;;;;;;9.77;2.30;;;;;;;;;;5094550;28;20044;-72
2023/11/04 06:13:56;;;;;;;8.55;2.45;;;;;;;;;;5095474;28;20515;-73
2023/11/04 06:16:23;;;;;;;6.43;2.35;;;;;;;;;;5076931;28;20463;-73
2023/11/04 06:18:49;;;;;;;4.15;1.83;;;;;;;;;;5097371;28;20051;-73
2023/11/04 06:21:16;;;;;;;4.70;2.22;;;;;;;;;;5083420;28;20051;-73
2023/11/04 06:23:43;;;;;;;5.82;2.45;;;;;;;;;;5082042;28;20401;-73
2023/11/04 06:26:09;;;;;;;6.10;2.42;;;;;;;;;;5101956;28;20093;-73
2023/11/04 06:28:36;;;;;;;5.28;2.50;;;;;;;;;;5085442;28;20044;-73
2023/11/04 06:31:10;;;;;;;4.38;2.55;;;;;;;;;;5094647;28;20188;-72
2023/11/04 06:33:36;;;;;;;4.72;2.10;;;;;;;;;;5088721;28;20048;-73
2023/11/04 06:36:03;;;;;;;5.47;2.35;;;;;;;;;;5095910;28;20488;-73
2023/11/04 06:38:29;;;;;;;4.75;2.40;;;;;;;;;;5094241;28;20094;-73
2023/11/04 06:40:56;;;;;;;6.75;2.53;;;;;;;;;;5091165;28;20051;-73
2023/11/04 06:43:22;;;;;;;6.90;2.22;;;;;;;;;;5084443;28;20736;-73
2023/11/04 06:45:49;;;;;;;6.22;2.45;;;;;;;;;;5103566;28;20051;-73
2023/11/04 06:48:15;;;;;;;3.75;2.42;;;;;;;;;;5077099;28;20055;-73
2023/11/04 06:50:42;;;;;;;6.65;2.90;;;;;;;;;;5092285;28;20040;-73
2023/11/04 06:53:08;;;;;;;4.05;2.10;;;;;;;;;;5088944;28;20047;-72
2023/11/04 06:55:34;;;;;;;7.38;2.38;;;;;;;;;;5087257;28;20051;-73
2023/11/04 06:58:01;;;;;;;5.22;2.35;;;;;;;;;;5098543;28;20044;-73
2023/11/04 07:00:27;;;;;;;3.25;2.25;;;;;;;;;;5087574;28;20051;-73
2023/11/04 07:02:54;;;;;;;6.32;2.30;;;;;;;;;;5069118;28;20055;-73
2023/11/04 07:05:23;;;;;;;13.65;2.28;;;;;;;;;;5100927;28;20057;-73
2023/11/04 07:07:50;;;;;;;7.35;2.17;;;;;;;;;;5079711;28;20052;-73
2023/11/04 07:10:18;;;;;;;6.63;2.30;;;;;;;;;;5069966;28;20050;-73
2023/11/04 07:12:44;;;;;;;7.22;1.95;;;;;;;;;;5105717;28;20054;-73
2023/11/04 07:15:11;;;;;;;4.68;2.00;;;;;;;;;;5092538;28;20473;-73
2023/11/04 07:17:37;;;;;;;5.15;2.13;;;;;;;;;;5098703;28;20055;-73
2023/11/04 07:20:07;;;;;;;5.53;2.03;;;;;;;;;;5105003;28;20690;-73
2023/11/04 07:22:34;;;;;;;5.10;2.30;;;;;;;;;;5079985;28;20052;-73
2023/11/04 07:25:00;;;;;;;4.32;1.90;;;;;;;;;;5088978;27;20093;-73
2023/11/04 07:27:27;;;;;;;5.00;1.90;;;;;;;;;;5098881;27;20075;-73
2023/11/04 07:29:53;;;;;;;5.60;1.95;;;;;;;;;;5094417;28;20548;-73
2023/11/04 07:32:20;;;;;;;3.95;2.20;;;;;;;;;;5094725;28;20125;-73
2023/11/04 07:34:47;;;;;;;3.88;1.70;;;;;;;;;;5100094;28;20052;-73
2023/11/04 07:37:14;;;;;;;5.38;1.98;;;;;;;;;;5101674;28;20491;-73
2023/11/04 07:39:40;;;;;;;5.88;1.70;;;;;;;;;;5087315;28;20039;-73
2023/11/04 07:42:07;;;;;;;3.70;1.80;;;;;;;;;;5110278;27;20044;-73
2023/11/04 07:44:34;;;;;;;5.53;2.00;;;;;;;;;;5095627;28;20414;-73
2023/11/04 07:47:03;;;;;;;3.25;1.73;;;;;;;;;;5087342;28;20130;-73
2023/11/04 07:49:29;;;;;;;3.95;2.03;;;;;;;;;;5085215;28;20049;-73
2023/11/04 07:51:56;;;;;;;4.68;2.28;;;;;;;;;;5104701;28;20048;-73
2023/11/04 07:54:22;;;;;;;4.32;1.85;;;;;;;;;;5086543;28;20048;-73
2023/11/04 07:56:49;;;;;;;5.25;2.13;;;;;;;;;;5104808;28;20561;-73
2023/11/04 07:59:15;;;;;;;6.38;2.30;;;;;;;;;;5086751;28;20499;-73
2023/11/04 08:01:42;;;;;;;6.13;1.60;;;;;;;;;;5087433;28;20118;-73
2023/11/04 08:04:08;;;;;;;3.65;1.50;;;;;;;;;;5099668;27;20683;-73
2023/11/04 08:06:36;;;;;;;7.85;1.73;;;;;;;;;;5083584;28;20044;-73
2023/11/04 08:09:02;;;;;;;2.50;1.35;;;;;;;;;;5099183;28;20040;-73
2023/11/04 08:11:29;;;;;;;4.18;1.75;;;;;;;;;;5078674;28;20818;-73
2023/11/04 08:13:55;;;;;;;4.70;1.70;;;;;;;;;;5073158;28;20040;-73
2023/11/04 08:16:22;;;;;;;3.33;1.45;;;;;;;;;;5086485;28;20040;-73
2023/11/04 08:18:48;;;;;;;3.97;1.58;;;;;;;;;;5087374;28;20513;-73
2023/11/04 08:21:18;;;;;;;11.20;2.33;;;;;;;;;;5075751;28;20412;-73
2023/11/04 08:23:44;;;;;;;2.95;1.45;;;;;;;;;;5092243;28;20048;-73
2023/11/04 08:26:11;;;;;;;3.72;1.30;;;;;;;;;;5085764;28;20050;-73
2023/11/04 08:28:37;;;;;;;3.63;1.70;;;;;;;;;;5085613;28;20106;-73
2023/11/04 08:31:04;;;;;;;6.57;1.20;;;;;;;;;;5089693;28;20139;-73
2023/11/04 08:33:32;;;;;;;3.28;1.48;;;;;;;;;;5081396;28;20044;-73
2023/11/04 08:35:59;;;;;;;2.65;1.20;;;;;;;;;;5096689;28;20408;-73
2023/11/04 08:38:26;;;;;;;1.95;1.15;;;;;;;;;;5073477;28;20685;-73
2023/11/04 08:40:52;;;;;;;4.85;1.60;;;;;;;;;;5102671;28;20059;-73
2023/11/04 08:43:19;;;;;;;3.95;1.23;;;;;;;;;;5078626;28;20528;-73
2023/11/04 08:45:45;;;;;;;3.15;1.38;;;;;;;;;;5101144;28;20079;-73
2023/11/04 08:48:12;;;;;;;4.68;1.48;;;;;;;;;;5079335;28;20133;-73
2023/11/04 08:50:38;;;;;;;2.28;1.08;;;;;;;;;;5080914;28;20050;-73
2023/11/04 08:53:05;;;;;;;5.43;1.70;;;;;;;;;;5082324;28;20043;-73
2023/11/04 08:55:31;;;;;;;3.08;1.10;;;;;;;;;;5095949;28;20130;-73
2023/11/04 08:57:58;;;;;;;5.72;1.20;;;;;;;;;;5073300;28;20059;-73
2023/11/04 09:00:24;;;;;;;3.17;1.10;;;;;;;;;;5065449;28;20526;-74
2023/11/04 09:02:52;;;;;;;2.30;1.15;;;;;;;;;;5080264;28;20058;-73
2023/11/04 09:05:18;;;;;;;3.83;0.93;;;;;;;;;;5100834;28;20731;-73
2023/11/04 09:07:56;;;;;;;3.30;0.80;;;;;;;;;;5098742;28;20094;-73
2023/11/04 09:10:23;;;;;;;5.10;1.77;;;;;;;;;;5081743;28;20043;-74
2023/11/04 09:12:49;;;;;;;2.42;1.17;;;;;;;;;;5101874;28;20062;-73
2023/11/04 09:15:16;;;;;;;2.30;1.13;;;;;;;;;;5100882;28;20054;-73
2023/11/04 09:17:42;;;;;;;4.35;1.35;;;;;;;;;;5102153;28;20651;-73
2023/11/04 09:20:09;;;;;;;4.20;1.70;;;;;;;;;;5102130;28;20055;-73
2023/11/04 09:22:36;;;;;;;2.63;0.98;;;;;;;;;;5083646;28;20416;-73
2023/11/04 09:25:03;;;;;;;4.47;1.05;;;;;;;;;;5080503;28;20055;-73
2023/11/04 09:27:29;;;;;;;3.20;0.98;;;;;;;;;;5093800;28;20053;-73
2023/11/04 09:29:58;;;;;;;2.92;1.23;;;;;;;;;;5083389;28;20373;-73
2023/11/04 09:32:24;;;;;;;;;;;;;;;;;;5103004;28;20708;-73
2023/11/04 09:34:51;;;;;;;3.78;0.95;;;;;;;;;;5093737;28;20203;-73
2023/11/04 09:37:17;;;;;;;2.28;0.90;;;;;;;;;;5092366;28;20087;-73
2023/11/04 09:39:44;;;;;;;2.92;1.40;;;;;;;;;;5097121;28;20051;-74
2023/11/04 09:42:11;;;;;;;1.10;0.80;;;;;;;;;;5080848;28;20135;-73
2023/11/04 09:44:38;;;;;;;3.20;1.30;;;;;;;;;;5082651;28;20043;-73
2023/11/04 09:47:05;;;;;;;3.38;1.00;;;;;;;;;;5082348;28;20131;-73
2023/11/04 09:49:31;;;;;;;1.30;0.88;;;;;;;;;;5081195;28;20495;-73
2023/11/04 09:51:59;;;;;;;2.15;1.00;;;;;;;;;;5097121;28;20506;-73
2023/11/04 09:54:27;;;;;;;2.60;1.10;;;;;;;;;;5095022;28;20420;-73
2023/11/04 09:56:55;;;;;;;3.17;1.02;;;;;;;;;;5085572;28;20543;-74
2023/11/04 09:59:21;;;;;;;1.15;0.82;;;;;;;;;;5085531;27;20052;-73
2023/11/04 10:01:47;;;;;;;1.27;1.00;;;;;;;;;;5079537;28;20047;-73
2023/11/04 10:04:14;;;;;;;5.78;1.20;;;;;;;;;;5091886;28;20044;-73
2023/11/04 10:06:42;;;;;;;1.50;0.80;;;;;;;;;;5089493;28;20127;-73
2023/11/04 10:09:09;;;;;;;2.78;1.00;;;;;;;;;;5090010;28;20082;-73
2023/11/04 10:11:35;;;;;;;2.17;0.90;;;;;;;;;;5094624;28;20043;-73
2023/11/04 10:14:02;;;;;;;3.88;1.02;;;;;;;;;;5088980;28;20064;-73
2023/11/04 10:16:29;;;;;;;2.70;0.80;;;;;;;;;;5065378;28;20143;-73
2023/11/04 10:18:55;;;;;;;2.92;0.98;;;;;;;;;;5083899;28;20739;-73
2023/11/04 10:21:22;;;;;;;1.63;0.70;;;;;;;;;;5083056;28;20162;-73
2023/11/04 10:23:49;;;;;;;1.58;0.77;;;;;;;;;;5087191;28;20508;-73
2023/11/04 10:26:15;;;;;;;1.48;0.80;;;;;;;;;;5063569;28;20058;-73
2023/11/04 10:28:41;;;;;;;2.72;0.70;;;;;;;;;;5095602;28;20132;-73
2023/11/04 10:31:11;;;;;;;2.53;0.80;;;;;;;;;;5063775;28;20385;-73
2023/11/04 10:33:40;;;;;;;0.73;0.68;;;;;;;;;;5094961;28;20833;-73
2023/11/04 10:36:08;;;;;;;3.63;0.95;;;;;;;;;;5075114;28;20056;-73
2023/11/04 10:38:35;;;;;;;1.70;0.70;;;;;;;;;;5097438;28;20522;-73
2023/11/04 10:41:04;;;;;;;1.73;0.95;;;;;;;;;;5091316;28;20051;-73
2023/11/04 10:43:36;;;;;;;3.20;0.85;;;;;;;;;;5073544;28;20151;-73
2023/11/04 10:46:07;;;;;;;1.65;0.70;;;;;;;;;;5083882;28;20048;-73
2023/11/04 10:48:59;;;;;;;1.55;0.93;;;;;;;;;;5091318;28;20047;-73
2023/11/04 10:51:32;;;;;;;1.58;0.70;;;;;;;;;;5087949;28;20051;-73
2023/11/04 10:54:15;;;;;;;0.95;0.63;;;;;;;;;;5093891;28;20051;-73
2023/11/04 10:56:48;;;;;;;1.33;0.75;;;;;;;;;;5081723;28;20079;-73
2023/11/04 10:59:17;;;;;;;1.20;0.70;;;;;;;;;;5089639;28;20528;-73
2023/11/04 11:01:45;;;;;;;1.80;0.60;;;;;;;;;;5095006;28;20415;-73
2023/11/04 11:04:12;;;;;;;4.88;0.82;;;;;;;;;;5096716;28;20051;-73
2023/11/04 11:06:39;;;;;;;0.95;0.50;;;;;;;;;;5077430;28;20039;-74
2023/11/04 11:09:08;;;;;;;1.48;0.60;;;;;;;;;;5081087;28;20075;-73
2023/11/04 11:11:54;;;;;;;2.80;0.88;;;;;;;;;;5086629;28;20446;-73
2023/11/04 11:14:21;;;;;;;1.40;0.60;;;;;;;;;;5101282;28;20047;-73
2023/11/04 11:16:57;;;;;;;1.17;0.57;;;;;;;;;;5090977;28;20097;-73
2023/11/04 11:19:23;;;;;;;0.90;0.60;;;;;;;;;;5091952;28;20123;-73
2023/11/04 11:21:50;;;;;;;2.17;0.52;;;;;;;;;;5088763;28;20789;-73
2023/11/04 11:24:20;;;;;;;2.28;0.60;;;;;;;;;;5084425;28;20051;-73
2023/11/04 11:26:57;;;;;;;2.30;0.70;;;;;;;;;;5078115;28;20043;-73
2023/11/04 11:29:24;;;;;;;1.17;0.68;;;;;;;;;;5075871;28;20502;-73
2023/11/04 11:32:02;;;;;;;1.75;0.65;;;;;;;;;;5070424;28;20093;-73
2023/11/04 11:34:28;;;;;;;3.05;0.68;;;;;;;;;;5075754;28;20044;-73
2023/11/04 11:36:55;;;;;;;2.92;0.98;;;;;;;;;;5097095;27;20056;-73
2023/11/04 11:39:22;;;;;;;2.20;0.88;;;;;;;;;;5090358;28;20067;-73
2023/11/04 11:41:49;;;;;;;0.85;0.57;;;;;;;;;;5074470;28;20070;-73
2023/11/04 11:44:15;;;;;;;2.03;0.70;;;;;;;;;;5102373;28;20117;-73
2023/11/04 11:46:45;;;;;;;1.70;0.80;;;;;;;;;;5098345;28;20596;-73
2023/11/04 11:49:12;;;;;;;2.38;0.95;;;;;;;;;;5093732;28;20589;-73
2023/11/04 11:51:38;;;;;;;3.45;0.90;;;;;;;;;;5073113;28;20129;-73
2023/11/04 11:54:05;;;;;;;6.10;1.30;;;;;;;;;;5088379;28;20052;-73
2023/11/04 11:56:31;;;;;;;1.67;0.90;;;;;;;;;;5104128;28;20586;-75
2023/11/04 11:59:06;;;;;;;2.92;1.00;;;;;;;;;;5095988;28;20132;-73
2023/11/04 12:01:33;;;;;;;2.15;1.25;;;;;;;;;;5104479;28;20136;-73
2023/11/04 12:04:01;;;;;;;2.47;1.05;;;;;;;;;;5082789;28;20143;-73
2023/11/04 12:06:28;;;;;;;4.22;0.90;;;;;;;;;;5085068;28;20127;-72
2023/11/04 12:08:56;;;;;;;2.67;1.10;;;;;;;;;;5102510;28;20064;-72
2023/11/04 12:11:26;;;;;;;1.98;0.85;;;;;;;;;;5105105;28;20048;-73
2023/11/04 12:13:53;;;;;;;2.28;0.60;;;;;;;;;;5102173;28;20085;-72
2023/11/04 12:16:21;;;;;;;2.40;1.08;;;;;;;;;;5105263;28;20044;-74
2023/11/04 12:18:47;;;;;;;3.13;1.00;;;;;;;;;;5101385;28;20124;-74
2023/11/04 12:21:14;;;;;;;3.15;1.00;;;;;;;;;;5094912;28;20078;-73
2023/11/04 12:23:41;;;;;;;1.83;0.80;;;;;;;;;;5075780;28;20640;-74
2023/11/04 12:26:07;;;;;;;3.38;0.80;;;;;;;;;;5095273;28;20519;-73
2023/11/04 12:28:41;;;;;;;2.88;0.85;;;;;;;;;;5084375;28;20048;-73
2023/11/04 12:31:08;;;;;;;2.83;0.90;;;;;;;;;;5114642;27;20108;-73
2023/11/04 12:33:35;;;;;;;1.98;0.82;;;;;;;;;;5094658;27;20044;-73
2023/11/04 12:36:06;;;;;;;2.47;0.80;;;;;;;;;;5096773;28;20062;-73
2023/11/04 12:38:33;;;;;;;2.75;0.93;;;;;;;;;;5109925;27;20055;-73
2023/11/04 12:41:00;;;;;;;5.65;0.95;;;;;;;;;;5103942;28;20526;-73
2023/11/04 12:43:28;;;;;;;3.97;1.00;;;;;;;;;;5095739;28;20060;-72
2023/11/04 12:45:58;;;;;;;2.45;1.02;;;;;;;;;;5095376;28;20048;-71
2023/11/04 12:48:25;;;;;;;3.95;0.80;;;;;;;;;;5095598;28;20040;-72
2023/11/04 12:50:52;;;;;;;3.17;0.90;;;;;;;;;;5084663;28;20542;-72
2023/11/04 12:53:19;;;;;;;1.85;0.70;;;;;;;;;;5071005;28;20036;-72
2023/11/04 12:55:45;;;;;;;3.97;1.25;;;;;;;;;;5097474;28;20134;-71
2023/11/04 12:58:12;;;;;;;6.72;1.10;;;;;;;;;;5100635;28;20051;-72
2023/11/04 13:00:39;;;;;;;3.63;1.20;;;;;;;;;;5087542;28;20048;-71
2023/11/04 13:03:05;;;;;;;3.47;1.23;;;;;;;;;;5101276;28;20047;-70
2023/11/04 13:05:32;;;;;;;5.43;1.63;;;;;;;;;;5087918;28;20647;-72
2023/11/04 13:07:59;;;;;;;2.17;1.42;;;;;;;;;;5101137;28;20040;-72
2023/11/04 13:10:26;;;;;;;2.33;1.33;;;;;;;;;;5099338;28;20059;-72
2023/11/04 13:12:52;;;;;;;2.67;1.20;;;;;;;;;;5097425;28;20492;-73
2023/11/04 13:15:19;;;;;;;1.83;1.00;;;;;;;;;;5087035;28;20171;-72
2023/11/04 13:17:45;;;;;;;3.83;1.13;;;;;;;;;;5095138;28;20059;-72
2023/11/04 13:20:11;;;;;;;4.03;1.20;;;;;;;;;;5081051;28;20116;-71
2023/11/04 13:22:38;;;;;;;3.67;1.23;;;;;;;;;;5089087;28;20054;-71
2023/11/04 13:25:07;;;;;;;3.53;1.08;;;;;;;;;;5088214;28;20051;-71
2023/11/04 13:27:34;;;;;;;6.32;1.20;;;;;;;;;;5101096;28;20114;-71
2023/11/04 13:30:01;;;;;;;4.25;1.38;;;;;;;;;;5089141;28;20040;-71
2023/11/04 13:32:27;;;;;;;3.72;1.40;;;;;;;;;;5087403;28;20166;-71
2023/11/04 13:34:54;;;;;;;3.83;0.90;;;;;;;;;;5097601;27;20558;-71
2023/11/04 13:37:21;;;;;;;5.28;1.13;;;;;;;;;;5097462;27;20057;-71
2023/11/04 13:39:47;;;;;;;2.80;1.20;;;;;;;;;;5090302;28;20154;-72
2023/11/04 13:42:14;;;;;;;4.13;1.42;;;;;;;;;;5083479;28;20055;-71
2023/11/04 13:44:41;;;;;;;4.13;1.17;;;;;;;;;;5096113;28;20111;-70
2023/11/04 13:47:07;;;;;;;7.93;1.38;;;;;;;;;;5090919;28;20131;-72
2023/11/04 13:49:34;;;;;;;2.95;1.40;;;;;;;;;;5099546;28;20039;-71
2023/11/04 13:52:01;;;;;;;2.63;1.50;;;;;;;;;;5089738;28;20048;-71
2023/11/04 13:54:28;;;;;;;3.92;1.38;;;;;;;;;;5081856;28;20043;-72
2023/11/04 13:56:54;;;;;;;3.47;1.50;;;;;;;;;;5085118;28;20047;-72
2023/11/04 13:59:21;;;;;;;6.65;1.70;;;;;;;;;;5090448;28;20048;-71
2023/11/04 14:01:47;;;;;;;2.92;1.40;;;;;;;;;;5102470;28;20108;-72
2023/11/04 14:04:14;;;;;;;4.68;1.45;;;;;;;;;;5089084;28;20082;-73
2023/11/04 14:06:40;;;;;;;1.75;1.10;;;;;;;;;;5097916;28;20522;-72
2023/11/04 14:09:07;;;;;;;3.40;1.52;;;;;;;;;;5086314;28;20641;-72
2023/11/04 14:11:33;;;;;;;2.10;1.20;;;;;;;;;;5100127;28;20039;-71
2023/11/04 14:13:59;;;;;;;3.90;1.50;;;;;;;;;;5098367;28;20035;-72
2023/11/04 14:16:27;;;;;;;5.18;1.73;;;;;;;;;;5083825;28;20051;-72
2023/11/04 14:18:53;;;;;;;3.72;1.50;;;;;;;;;;5088126;28;20080;-72
2023/11/04 14:21:20;;;;;;;3.28;1.38;;;;;;;;;;5074990;28;20644;-72
2023/11/04 14:23:46;;;;;;;3.92;1.48;;;;;;;;;;5094004;28;20056;-72
2023/11/04 14:26:13;;;;;;;2.50;1.15;;;;;;;;;;5089925;28;20048;-72
2023/11/04 14:28:39;;;;;;;2.47;1.50;;;;;;;;;;5103180;28;20043;-72
2023/11/04 14:31:06;;;;;;;2.30;1.30;;;;;;;;;;5091228;28;20423;-72
2023/11/04 14:33:32;;;;;;;3.33;1.85;;;;;;;;;;5100954;28;20052;-72
2023/11/04 14:35:59;;;;;;;2.58;1.60;;;;;;;;;;5085946;28;20557;-71
2023/11/04 14:38:25;;;;;;;2.70;1.42;;;;;;;;;;5090733;28;20113;-71
2023/11/04 14:40:52;;;;;;;1.88;1.38;;;;;;;;;;5103943;28;20055;-71
2023/11/04 14:43:18;;;;;;;4.28;1.50;;;;;;;;;;5083381;28;20106;-72